createdAt,value
2023-05-10T00:01:03.123Z,11.4
2023-05-10T00:06:03.186Z,13.4
2023-05-10T00:11:04.367Z,15.0
2023-05-10T00:16:03.240Z,15.0
2023-05-10T00:21:03.125Z,11.4
2023-05-10T00:26:03.222Z,11.0
2023-05-10T00:31:03.180Z,8.5
2023-05-10T00:41:03.133Z,10.7
2023-05-10T00:46:03.279Z,10.7
2023-05-10T00:51:03.138Z,10.4
2023-05-10T00:56:03.206Z,11.3
2023-05-10T01:01:04.434Z,14.7
2023-05-10T01:06:04.559Z,12.1
2023-05-10T01:11:04.432Z,9.8
2023-05-10T01:26:03.263Z,12.8
2023-05-10T01:31:03.176Z,10.2
2023-05-10T01:36:03.274Z,12.3
2023-05-10T01:41:03.165Z,15.3
2023-05-10T01:46:03.229Z,15.3
2023-05-10T01:51:03.166Z,6.8
2023-05-10T01:56:05.414Z,8.1
2023-05-10T02:01:05.463Z,8.0
2023-05-10T02:06:03.270Z,8.4
2023-05-10T02:11:05.450Z,15.9
2023-05-10T02:16:03.254Z,15.9
2023-05-10T02:21:03.170Z,11.8
2023-05-10T02:26:03.253Z,12.4
2023-05-10T02:31:03.172Z,14.1
2023-05-10T02:36:03.291Z,14.8
2023-05-10T02:41:03.172Z,9.0
2023-05-10T02:46:03.315Z,9.0
2023-05-10T02:51:03.181Z,9.3
2023-05-10T03:06:03.287Z,13.1
2023-05-10T03:11:03.176Z,14.4
2023-05-10T03:16:03.339Z,14.4
2023-05-10T03:21:04.426Z,11.7
2023-05-10T03:26:03.304Z,9.7
2023-05-10T03:31:03.205Z,13.4
2023-05-10T03:36:04.596Z,11.2
2023-05-10T03:41:04.426Z,10.6
2023-05-10T03:46:04.426Z,10.6
2023-05-10T03:51:03.195Z,12.5
2023-05-10T03:56:03.272Z,10.8
2023-05-10T04:01:03.181Z,9.3
2023-05-10T04:06:03.419Z,10.4
2023-05-10T04:11:03.182Z,13.5
2023-05-10T04:16:03.290Z,13.5
2023-05-10T04:21:03.186Z,10.4
2023-05-10T04:26:03.280Z,12.3
2023-05-10T04:31:04.473Z,14.5
2023-05-10T04:36:03.287Z,14.6
2023-05-10T04:41:04.456Z,14.0
2023-05-10T04:46:04.475Z,14.0
2023-05-10T04:51:04.455Z,12.7
2023-05-10T04:56:03.320Z,9.6
2023-05-10T05:01:03.188Z,14.1
2023-05-10T05:06:03.347Z,11.1
2023-05-10T05:11:04.462Z,14.8
2023-05-10T05:16:04.514Z,14.8
2023-05-10T05:21:05.490Z,13.7
2023-05-10T05:26:03.281Z,11.4
2023-05-10T05:31:03.209Z,12.1
2023-05-10T05:36:03.285Z,16.1
2023-05-10T05:41:03.203Z,16.2
2023-05-10T05:51:04.187Z,9.0
2023-05-10T06:01:03.216Z,11.8
2023-05-10T06:06:03.297Z,13.6
2023-05-10T06:11:04.495Z,12.6
2023-05-10T06:16:03.285Z,12.6
2023-05-10T06:21:03.253Z,15.0
2023-05-10T06:26:03.286Z,11.9
2023-05-10T06:31:03.275Z,12.3
2023-05-10T06:36:03.338Z,14.5
2023-05-10T06:41:03.217Z,12.6
2023-05-10T06:46:05.320Z,12.6
2023-05-10T06:56:04.629Z,13.6
2023-05-10T07:06:04.622Z,9.3
2023-05-10T07:11:03.225Z,7.6
2023-05-10T07:16:03.329Z,7.6
2023-05-10T07:26:03.338Z,11.6
2023-05-10T07:31:05.549Z,5.1
2023-05-10T07:36:05.563Z,9.8
2023-05-10T07:41:03.250Z,7.9
2023-05-10T07:46:05.558Z,7.9
2023-05-10T07:51:05.557Z,10.1
2023-05-10T07:56:03.302Z,8.7
2023-05-10T08:01:05.524Z,12.1
2023-05-10T08:16:06.261Z,9.1
2023-05-10T08:21:03.244Z,7.8
2023-05-10T08:26:05.544Z,6.4
2023-05-10T08:31:05.660Z,6.5
2023-05-10T08:36:04.568Z,10.6
2023-05-10T08:41:05.546Z,8.1
2023-05-10T08:46:05.696Z,8.1
2023-05-10T08:56:03.316Z,8.5
2023-05-10T09:06:03.311Z,6.2
2023-05-10T09:11:04.544Z,6.3
2023-05-10T09:16:13.872Z,6.3
2023-05-10T09:21:03.293Z,8.1
2023-05-10T09:31:04.548Z,9.1
2023-05-10T09:36:03.232Z,9.1
2023-05-10T09:46:03.273Z,7.9
2023-05-10T09:51:06.274Z,8.0
2023-05-10T09:56:03.296Z,9.9
2023-05-10T10:11:03.282Z,6.2
2023-05-10T10:21:03.272Z,5.6
2023-05-10T10:26:03.308Z,5.8
2023-05-10T10:31:03.252Z,6.0
2023-05-10T10:41:03.290Z,5.1
2023-05-10T10:46:03.311Z,5.1
2023-05-10T10:51:03.319Z,5.8
2023-05-10T10:56:03.302Z,6.5
2023-05-10T11:06:07.762Z,4.6
2023-05-10T11:11:03.279Z,5.4
2023-05-10T11:16:03.301Z,5.4
2023-05-10T11:21:05.623Z,4.2
2023-05-10T11:26:03.299Z,4.0
2023-05-10T11:31:10.056Z,4.5
2023-05-10T11:41:03.327Z,5.5
2023-05-10T11:46:03.308Z,5.5
2023-05-10T11:56:04.527Z,4.5
2023-05-10T12:06:04.623Z,1.2
2023-05-10T12:11:03.284Z,3.5
2023-05-10T12:16:03.393Z,3.5
2023-05-10T12:21:03.337Z,1.8
2023-05-10T12:26:03.399Z,2.0
2023-05-10T12:31:05.638Z,2.7
2023-05-10T12:36:03.407Z,1.7
2023-05-10T12:41:05.679Z,4.8
2023-05-10T12:46:03.325Z,4.8
2023-05-10T13:01:06.419Z,2.7
2023-05-10T13:16:03.401Z,4.2
2023-05-10T13:21:05.477Z,3.9
2023-05-10T13:26:05.379Z,2.6
2023-05-10T13:36:05.638Z,2.6
2023-05-10T13:46:03.407Z,3.5
2023-05-10T13:51:05.602Z,3.3
2023-05-10T13:56:05.597Z,3.1
2023-05-10T14:01:04.639Z,2.0
2023-05-10T14:06:05.602Z,3.2
2023-05-10T14:16:05.463Z,2.0
2023-05-10T14:21:07.775Z,2.5
2023-05-10T14:36:08.730Z,2.2
2023-05-10T14:46:07.705Z,3.1
2023-05-10T14:51:08.658Z,2.5
2023-05-10T14:56:06.352Z,1.6
2023-05-10T15:01:04.625Z,3.5
2023-05-10T15:11:03.335Z,2.2
2023-05-10T15:16:05.530Z,7.3
2023-05-10T15:21:05.664Z,0.9
2023-05-10T15:26:03.260Z,1.9
2023-05-10T15:31:05.687Z,2.6
2023-05-10T15:36:05.656Z,0.8
2023-05-10T15:41:03.336Z,0.8
2023-05-10T15:46:05.678Z,0.6
2023-05-10T15:51:03.330Z,1.8
2023-05-10T16:01:04.744Z,0.7
2023-05-10T16:16:03.395Z,1.3
2023-05-10T16:21:03.350Z,0.6
2023-05-10T16:26:03.458Z,0.7
2023-05-10T16:36:05.750Z,1.1
2023-05-10T16:41:03.379Z,1.1
2023-05-10T16:51:03.356Z,1.6
2023-05-10T17:01:03.380Z,1.8
2023-05-10T17:06:03.459Z,1.4
2023-05-10T17:11:03.362Z,1.4
2023-05-10T17:16:03.636Z,2.2
2023-05-10T17:21:04.629Z,2.1
2023-05-10T17:31:04.792Z,2.6
2023-05-10T17:36:03.454Z,1.6
2023-05-10T17:41:03.393Z,1.6
2023-05-10T17:56:06.449Z,2.4
2023-05-10T18:01:03.426Z,3.7
2023-05-10T18:06:05.886Z,2.8
2023-05-10T18:16:05.883Z,1.9
2023-05-10T18:21:05.776Z,1.4
2023-05-10T18:26:05.747Z,0.9
2023-05-10T18:31:03.414Z,1.8
2023-05-10T18:36:03.455Z,1.1
2023-05-10T18:41:03.410Z,1.1
2023-05-10T18:51:05.784Z,1.6
2023-05-10T18:56:03.501Z,2.1
2023-05-10T19:01:03.450Z,2.9
2023-05-10T19:06:04.700Z,2.1
2023-05-10T19:11:05.577Z,2.1
2023-05-10T19:21:08.719Z,2.5
2023-05-10T19:26:08.688Z,2.3
2023-05-10T19:31:03.472Z,1.6
2023-05-10T19:36:03.595Z,1.7
2023-05-10T19:41:03.440Z,1.7
2023-05-10T19:46:05.756Z,1.7
2023-05-10T20:01:03.424Z,1.5
2023-05-10T20:16:05.692Z,2.6
2023-05-10T20:21:03.430Z,3.3
2023-05-10T20:26:03.632Z,2.2
2023-05-10T20:36:03.512Z,1.3
2023-05-10T20:41:03.461Z,1.3
2023-05-10T20:46:03.578Z,1.7
2023-05-10T20:51:05.712Z,1.5
2023-05-10T20:56:03.547Z,2.2
2023-05-10T21:01:03.424Z,2.2
2023-05-10T21:06:03.527Z,2.0
2023-05-10T21:11:03.436Z,2.0
2023-05-10T21:16:05.752Z,4.5
2023-05-10T21:21:03.458Z,3.1
2023-05-10T21:31:03.425Z,4.9
2023-05-10T21:36:05.761Z,5.3
2023-05-10T21:41:03.449Z,5.3
2023-05-10T21:46:03.612Z,7.1
2023-05-10T21:51:03.447Z,5.5
2023-05-10T21:56:03.524Z,5.1
2023-05-10T22:01:04.775Z,6.9
2023-05-10T22:06:04.686Z,7.3
2023-05-10T22:11:03.436Z,7.3
2023-05-10T22:16:05.943Z,5.3
2023-05-10T22:21:04.715Z,4.4
2023-05-10T22:26:03.526Z,5.1
2023-05-10T22:36:03.538Z,6.9
2023-05-10T22:41:03.451Z,6.9
2023-05-10T22:46:05.791Z,5.7
2023-05-10T22:56:05.832Z,4.9
2023-05-10T23:11:06.477Z,3.8
2023-05-10T23:16:03.548Z,4.0
2023-05-10T23:21:03.453Z,6.1
2023-05-10T23:26:03.548Z,4.1
2023-05-10T23:31:05.837Z,5.7
2023-05-10T23:36:03.560Z,5.2
2023-05-10T23:41:04.708Z,5.2
2023-05-10T23:46:03.620Z,5.6
2023-05-10T23:51:03.467Z,4.2
2023-05-10T23:56:03.579Z,4.9
